Time;durP1;ratioP1;P1;durP2;ratioP2;P2;SDS_P1;SDS_P2;PMS_P1;PMS_P2;Temp;Humidity;BMP_temperature;BMP_pressure;BME280_temperature;BME280_humidity;BME280_pressure;Samples;Min_cycle;Max_cycle;Signal;HPM_P1;HPM_P2
2021/10/19 00:01:47;;;;;;;26.02;16.60;;;;;;;;;;4955712;29;20047;-66
2021/10/19 00:04:14;;;;;;;30.20;18.17;;;;;;;;;;4955729;29;20051;-67
2021/10/19 00:06:41;;;;;;;29.58;16.95;;;;;;;;;;4955853;29;20059;-67
2021/10/19 00:09:07;;;;;;;26.90;17.13;;;;;;;;;;4954557;29;20051;-66
2021/10/19 00:11:34;;;;;;;27.90;16.55;;;;;;;;;;4955471;29;20577;-66
2021/10/19 00:14:01;;;;;;;26.63;15.90;;;;;;;;;;4955520;29;20497;-67
2021/10/19 00:16:27;;;;;;;25.75;16.10;;;;;;;;;;4955719;29;20059;-66
2021/10/19 00:18:54;;;;;;;28.20;16.08;;;;;;;;;;4955438;29;20043;-66
2021/10/19 00:21:21;;;;;;;26.10;16.48;;;;;;;;;;4954918;29;20518;-67
2021/10/19 00:23:47;;;;;;;23.00;15.02;;;;;;;;;;4955576;29;20099;-66
2021/10/19 00:26:14;;;;;;;24.95;16.50;;;;;;;;;;4955617;29;20062;-66
2021/10/19 00:28:40;;;;;;;26.73;15.60;;;;;;;;;;4938440;29;20509;-67
2021/10/19 00:31:07;;;;;;;28.92;16.73;;;;;;;;;;4955149;29;20062;-67
2021/10/19 00:33:34;;;;;;;25.88;15.52;;;;;;;;;;4955151;29;20074;-67
2021/10/19 00:36:00;;;;;;;27.38;16.52;;;;;;;;;;4955261;29;20430;-67
2021/10/19 00:38:27;;;;;;;27.00;16.52;;;;;;;;;;4955203;29;20469;-67
2021/10/19 00:40:54;;;;;;;27.92;17.27;;;;;;;;;;4954941;29;20399;-67
2021/10/19 00:43:21;;;;;;;31.77;17.38;;;;;;;;;;4954981;29;20089;-66
2021/10/19 00:45:49;;;;;;;33.22;18.42;;;;;;;;;;4954991;29;20425;-67
2021/10/19 00:48:17;;;;;;;38.58;20.67;;;;;;;;;;4954980;29;20143;-67
2021/10/19 00:50:44;;;;;;;36.55;19.70;;;;;;;;;;4954684;29;20055;-67
2021/10/19 00:53:13;;;;;;;37.63;19.30;;;;;;;;;;4937620;29;20059;-66
2021/10/19 00:55:40;;;;;;;32.47;17.58;;;;;;;;;;4922523;29;20060;-67
2021/10/19 00:58:06;;;;;;;30.27;18.08;;;;;;;;;;4922143;29;20059;-67
2021/10/19 01:00:33;;;;;;;32.50;18.02;;;;;;;;;;4953552;28;20047;-67
2021/10/19 01:03:00;;;;;;;34.40;18.50;;;;;;;;;;4954435;29;20561;-67
2021/10/19 01:05:27;;;;;;;29.00;17.45;;;;;;;;;;4954822;29;20129;-67
2021/10/19 01:07:54;;;;;;;33.10;18.45;;;;;;;;;;4954552;29;20051;-67
2021/10/19 01:10:21;;;;;;;33.55;17.85;;;;;;;;;;4937527;29;20485;-66
2021/10/19 01:12:48;;;;;;;30.60;17.80;;;;;;;;;;4954317;29;20055;-67
2021/10/19 01:15:16;;;;;;;33.38;19.20;;;;;;;;;;4921738;29;20470;-66
2021/10/19 01:17:47;;;;;;;38.15;19.52;;;;;;;;;;4954350;29;20450;-66
2021/10/19 01:20:24;;;;;;;34.75;18.95;;;;;;;;;;4953816;29;20674;-67
2021/10/19 01:22:55;;;;;;;31.70;18.40;;;;;;;;;;4954131;29;20055;-67
2021/10/19 01:25:23;;;;;;;27.52;16.48;;;;;;;;;;4954462;29;20054;-67
2021/10/19 01:27:52;;;;;;;29.25;16.33;;;;;;;;;;4954337;29;20118;-67
2021/10/19 01:30:19;;;;;;;27.40;16.67;;;;;;;;;;4953936;29;20055;-67
2021/10/19 01:32:46;;;;;;;29.45;17.25;;;;;;;;;;4954019;29;20525;-67
2021/10/19 01:35:12;;;;;;;25.00;15.18;;;;;;;;;;4954125;29;20047;-67
2021/10/19 01:37:40;;;;;;;26.38;15.90;;;;;;;;;;4954220;29;20059;-67
2021/10/19 01:40:09;;;;;;;27.55;16.23;;;;;;;;;;4953812;29;20047;-66
2021/10/19 01:42:36;;;;;;;26.67;16.00;;;;;;;;;;4953866;29;20102;-67
2021/10/19 01:45:04;;;;;;;24.58;16.70;;;;;;;;;;4954073;29;20106;-67
2021/10/19 01:47:31;;;;;;;27.77;15.50;;;;;;;;;;4953967;29;20095;-67
2021/10/19 01:49:57;;;;;;;25.67;15.85;;;;;;;;;;4953736;29;20118;-67
2021/10/19 01:52:24;;;;;;;26.67;16.27;;;;;;;;;;4953658;29;20051;-67
2021/10/19 01:54:50;;;;;;;27.58;15.93;;;;;;;;;;4953920;29;20196;-67
2021/10/19 01:57:17;;;;;;;23.90;16.50;;;;;;;;;;4953834;29;20063;-67
2021/10/19 01:59:44;;;;;;;24.05;15.02;;;;;;;;;;4953692;29;20494;-66
2021/10/19 02:02:10;;;;;;;28.27;15.93;;;;;;;;;;4953452;29;20047;-67
2021/10/19 02:04:37;;;;;;;30.00;16.33;;;;;;;;;;4953874;29;20047;-67
2021/10/19 02:07:04;;;;;;;26.15;16.48;;;;;;;;;;4953693;29;20513;-67
2021/10/19 02:09:30;;;;;;;27.33;16.00;;;;;;;;;;4953636;29;20494;-67
2021/10/19 02:11:57;;;;;;;30.10;16.58;;;;;;;;;;4953334;29;20058;-67
2021/10/19 02:14:23;;;;;;;30.02;17.60;;;;;;;;;;4953624;29;20106;-67
2021/10/19 02:16:50;;;;;;;33.03;17.85;;;;;;;;;;4953675;29;20471;-67
2021/10/19 02:19:17;;;;;;;30.17;17.40;;;;;;;;;;4953359;29;20110;-67
2021/10/19 02:21:44;;;;;;;25.60;16.58;;;;;;;;;;4953090;29;20509;-67
2021/10/19 02:24:11;;;;;;;23.75;15.43;;;;;;;;;;4953839;29;20066;-67
2021/10/19 02:26:37;;;;;;;25.13;16.00;;;;;;;;;;4953648;29;20063;-67
2021/10/19 02:29:04;;;;;;;21.70;14.50;;;;;;;;;;4953498;29;20098;-67
2021/10/19 02:31:30;;;;;;;23.40;15.02;;;;;;;;;;4953272;29;20114;-67
2021/10/19 02:33:57;;;;;;;22.42;14.80;;;;;;;;;;4953457;29;20056;-67
2021/10/19 02:36:24;;;;;;;23.15;16.02;;;;;;;;;;4953883;29;20458;-67
2021/10/19 02:38:50;;;;;;;23.50;14.40;;;;;;;;;;4953206;29;20059;-67
2021/10/19 02:41:17;;;;;;;21.70;14.98;;;;;;;;;;4953271;29;20055;-67
2021/10/19 02:43:43;;;;;;;24.88;14.38;;;;;;;;;;4953372;29;20192;-67
2021/10/19 02:46:11;;;;;;;22.15;13.98;;;;;;;;;;4953306;29;20062;-67
2021/10/19 02:48:38;;;;;;;22.50;14.82;;;;;;;;;;4953437;29;20467;-67
2021/10/19 02:51:04;;;;;;;20.20;14.65;;;;;;;;;;4953170;29;20102;-67
2021/10/19 02:53:31;;;;;;;22.52;14.57;;;;;;;;;;4953244;29;20122;-67
2021/10/19 02:55:57;;;;;;;21.70;14.27;;;;;;;;;;4953299;29;20055;-67
2021/10/19 02:58:24;;;;;;;22.65;14.52;;;;;;;;;;4953228;29;20082;-68
2021/10/19 03:00:51;;;;;;;21.52;13.10;;;;;;;;;;4953063;29;20051;-67
2021/10/19 03:03:17;;;;;;;20.25;13.23;;;;;;;;;;4952705;29;20521;-67
2021/10/19 03:05:44;;;;;;;20.20;13.52;;;;;;;;;;4953201;29;20055;-67
2021/10/19 03:08:10;;;;;;;19.60;13.00;;;;;;;;;;4953199;29;20573;-67
2021/10/19 03:10:37;;;;;;;21.38;14.18;;;;;;;;;;4953171;29;20047;-66
2021/10/19 03:13:04;;;;;;;20.90;14.80;;;;;;;;;;4952908;29;20106;-67
2021/10/19 03:15:30;;;;;;;19.67;14.20;;;;;;;;;;4952937;29;20507;-67
2021/10/19 03:17:57;;;;;;;19.40;12.85;;;;;;;;;;4953259;29;20055;-67
2021/10/19 03:20:24;;;;;;;20.35;13.80;;;;;;;;;;4952820;29;20514;-67
2021/10/19 03:22:50;;;;;;;18.75;12.48;;;;;;;;;;4952852;28;20055;-67
2021/10/19 03:25:17;;;;;;;21.08;12.80;;;;;;;;;;4955939;29;20047;-67
2021/10/19 03:27:43;;;;;;;17.38;12.73;;;;;;;;;;4956745;29;20075;-68
2021/10/19 03:30:10;;;;;;;21.45;12.55;;;;;;;;;;4956439;29;20047;-67
2021/10/19 03:32:37;;;;;;;20.55;14.20;;;;;;;;;;4956232;29;20055;-67
2021/10/19 03:35:04;;;;;;;18.65;12.35;;;;;;;;;;4956315;29;20122;-67
2021/10/19 03:37:30;;;;;;;19.35;13.43;;;;;;;;;;4956299;29;20102;-67
2021/10/19 03:39:57;;;;;;;20.45;13.68;;;;;;;;;;4955982;29;20090;-67
2021/10/19 03:42:24;;;;;;;17.48;12.65;;;;;;;;;;4955963;29;20502;-67
2021/10/19 03:44:50;;;;;;;22.45;12.90;;;;;;;;;;4956140;29;20098;-67
2021/10/19 03:47:17;;;;;;;17.10;12.85;;;;;;;;;;4956240;29;20051;-67
2021/10/19 03:49:44;;;;;;;18.08;12.57;;;;;;;;;;4956075;29;20090;-67
2021/10/19 03:52:10;;;;;;;18.48;12.30;;;;;;;;;;4955739;29;20407;-67
2021/10/19 03:54:37;;;;;;;17.55;12.25;;;;;;;;;;4956056;29;20082;-67
2021/10/19 03:57:07;;;;;;;17.05;11.82;;;;;;;;;;4955887;29;20505;-67
2021/10/19 03:59:34;;;;;;;21.95;12.07;;;;;;;;;;4955848;29;20047;-67
2021/10/19 04:02:01;;;;;;;16.05;10.93;;;;;;;;;;4955506;29;20470;-67
2021/10/19 04:04:28;;;;;;;18.33;12.15;;;;;;;;;;4956000;29;20121;-67
2021/10/19 04:06:55;;;;;;;15.70;11.05;;;;;;;;;;4956067;29;20059;-67
2021/10/19 04:09:22;;;;;;;14.23;11.02;;;;;;;;;;4955739;29;20051;-67
2021/10/19 04:11:48;;;;;;;18.13;12.32;;;;;;;;;;4955184;29;20518;-67
2021/10/19 04:14:15;;;;;;;17.42;12.23;;;;;;;;;;4955773;29;20055;-67
2021/10/19 04:16:42;;;;;;;15.07;10.85;;;;;;;;;;4955697;29;20055;-66
2021/10/19 04:19:08;;;;;;;16.33;11.95;;;;;;;;;;4955164;29;20134;-67
2021/10/19 04:21:35;;;;;;;14.40;11.18;;;;;;;;;;4955759;29;20102;-66
2021/10/19 04:24:01;;;;;;;16.42;12.18;;;;;;;;;;4955431;29;20047;-67
2021/10/19 04:26:29;;;;;;;15.50;12.20;;;;;;;;;;4955529;29;20051;-67
2021/10/19 04:28:55;;;;;;;20.10;13.30;;;;;;;;;;4954894;29;20513;-67
2021/10/19 04:31:22;;;;;;;17.33;11.63;;;;;;;;;;4955359;29;20109;-67
2021/10/19 04:33:49;;;;;;;16.20;10.98;;;;;;;;;;4955197;29;20082;-67
2021/10/19 04:36:15;;;;;;;15.48;11.18;;;;;;;;;;4955102;28;20055;-67
2021/10/19 04:38:42;;;;;;;16.95;11.43;;;;;;;;;;4955320;29;20421;-67
2021/10/19 04:41:09;;;;;;;14.30;10.73;;;;;;;;;;4954844;29;20502;-67
2021/10/19 04:43:35;;;;;;;22.73;11.57;;;;;;;;;;4954816;29;20109;-66
2021/10/19 04:46:02;;;;;;;16.75;11.20;;;;;;;;;;4954841;29;20055;-67
2021/10/19 04:48:29;;;;;;;15.27;11.38;;;;;;;;;;4955312;29;20047;-67
2021/10/19 04:50:55;;;;;;;14.32;10.90;;;;;;;;;;4954846;29;20048;-67
2021/10/19 04:53:22;;;;;;;14.02;10.70;;;;;;;;;;4954562;29;20502;-67
2021/10/19 04:55:49;;;;;;;14.40;10.55;;;;;;;;;;4954767;29;20466;-67
2021/10/19 04:58:16;;;;;;;16.25;10.20;;;;;;;;;;4954655;29;20051;-67
2021/10/19 05:00:43;;;;;;;14.68;10.52;;;;;;;;;;4954687;29;20102;-67
2021/10/19 05:03:10;;;;;;;14.98;10.27;;;;;;;;;;4954059;29;20042;-68
2021/10/19 05:05:37;;;;;;;16.52;11.85;;;;;;;;;;4954457;29;20110;-68
2021/10/19 05:08:05;;;;;;;18.02;12.38;;;;;;;;;;4954284;29;20054;-66
2021/10/19 05:10:32;;;;;;;17.73;12.55;;;;;;;;;;4954123;29;20043;-66
2021/10/19 05:12:58;;;;;;;16.83;11.80;;;;;;;;;;4932046;29;20118;-68
2021/10/19 05:15:26;;;;;;;14.65;10.65;;;;;;;;;;4954385;29;20054;-66
2021/10/19 05:17:53;;;;;;;15.38;11.15;;;;;;;;;;4954039;29;20125;-67
2021/10/19 05:20:20;;;;;;;14.73;10.95;;;;;;;;;;4954377;29;20154;-67
2021/10/19 05:22:46;;;;;;;15.73;10.88;;;;;;;;;;4954146;29;20498;-67
2021/10/19 05:25:14;;;;;;;13.75;10.48;;;;;;;;;;4954314;29;20510;-67
2021/10/19 05:27:41;;;;;;;16.55;11.48;;;;;;;;;;4954353;29;20407;-67
2021/10/19 05:30:08;;;;;;;15.95;10.95;;;;;;;;;;4954194;29;20102;-66
2021/10/19 05:32:35;;;;;;;18.63;10.98;;;;;;;;;;4951808;29;20573;-66
2021/10/19 05:35:02;;;;;;;16.83;11.27;;;;;;;;;;4952272;29;20098;-65
2021/10/19 05:37:28;;;;;;;16.25;12.07;;;;;;;;;;4952189;29;20055;-66
2021/10/19 05:39:55;;;;;;;14.57;11.05;;;;;;;;;;4951928;29;20055;-65
2021/10/19 05:42:41;;;;;;;14.82;10.65;;;;;;;;;;4951889;29;20091;-65
2021/10/19 05:45:09;;;;;;;15.05;11.52;;;;;;;;;;4951579;29;20067;-65
2021/10/19 05:47:35;;;;;;;15.75;11.02;;;;;;;;;;4951684;28;20117;-66
2021/10/19 05:50:02;;;;;;;13.00;10.13;;;;;;;;;;4951916;29;20117;-66
2021/10/19 05:52:29;;;;;;;16.15;10.85;;;;;;;;;;4951800;29;20051;-66
2021/10/19 05:54:55;;;;;;;16.35;10.23;;;;;;;;;;4951758;29;20110;-66
2021/10/19 05:57:22;;;;;;;15.02;10.48;;;;;;;;;;4951778;29;20092;-66
2021/10/19 05:59:48;;;;;;;13.23;9.73;;;;;;;;;;4951744;29;20055;-67
2021/10/19 06:02:15;;;;;;;13.50;9.40;;;;;;;;;;4951624;29;20062;-66
2021/10/19 06:04:42;;;;;;;13.40;9.50;;;;;;;;;;4952021;29;20339;-66
2021/10/19 06:07:09;;;;;;;16.65;9.50;;;;;;;;;;4951292;29;20051;-66
2021/10/19 06:09:36;;;;;;;13.50;9.38;;;;;;;;;;4951573;29;20110;-66
2021/10/19 06:12:03;;;;;;;12.55;10.00;;;;;;;;;;4951023;29;20510;-66
2021/10/19 06:14:30;;;;;;;14.60;10.20;;;;;;;;;;4930885;29;20111;-66
2021/10/19 06:16:57;;;;;;;16.02;9.90;;;;;;;;;;4932449;29;20604;-66
2021/10/19 06:19:23;;;;;;;15.88;10.70;;;;;;;;;;4932231;29;20192;-66
2021/10/19 06:21:50;;;;;;;12.52;9.73;;;;;;;;;;4943804;29;20079;-66
2021/10/19 06:24:17;;;;;;;13.77;9.45;;;;;;;;;;4950242;29;20059;-66
2021/10/19 06:26:45;;;;;;;18.77;10.85;;;;;;;;;;4951811;29;20055;-65
2021/10/19 06:29:12;;;;;;;13.07;9.43;;;;;;;;;;4951392;29;20454;-65
2021/10/19 06:31:41;;;;;;;13.45;10.02;;;;;;;;;;4951085;29;20047;-65
2021/10/19 06:34:08;;;;;;;14.10;9.73;;;;;;;;;;4951334;29;20581;-65
2021/10/19 06:36:35;;;;;;;13.80;10.52;;;;;;;;;;4951193;29;20051;-66
2021/10/19 06:39:02;;;;;;;14.07;9.52;;;;;;;;;;4951271;29;20476;-65
2021/10/19 06:41:29;;;;;;;12.95;9.60;;;;;;;;;;4950589;29;20047;-65
2021/10/19 06:43:56;;;;;;;12.88;10.10;;;;;;;;;;4937190;28;20047;-66
2021/10/19 06:46:43;;;;;;;12.15;9.30;;;;;;;;;;4948370;29;20055;-65
2021/10/19 06:49:12;;;;;;;12.27;8.65;;;;;;;;;;4948719;29;20055;-66
2021/10/19 06:51:38;;;;;;;10.70;8.75;;;;;;;;;;4949213;29;20071;-66
2021/10/19 06:54:06;;;;;;;12.20;8.25;;;;;;;;;;4949530;29;20086;-66
2021/10/19 06:56:33;;;;;;;12.00;8.90;;;;;;;;;;4948938;29;20082;-65
2021/10/19 06:58:59;;;;;;;12.00;9.90;;;;;;;;;;4952106;28;20051;-65
2021/10/19 07:01:26;;;;;;;13.45;9.30;;;;;;;;;;4953200;29;20043;-66
2021/10/19 07:03:53;;;;;;;11.35;8.13;;;;;;;;;;4953778;29;20059;-66
2021/10/19 07:06:20;;;;;;;10.82;8.02;;;;;;;;;;4953401;29;20074;-66
2021/10/19 07:08:46;;;;;;;13.23;9.43;;;;;;;;;;4952802;29;20113;-65
2021/10/19 07:11:13;;;;;;;13.43;9.77;;;;;;;;;;4952618;29;20058;-65
2021/10/19 07:13:40;;;;;;;12.30;9.23;;;;;;;;;;4952553;28;20055;-64
2021/10/19 07:16:07;;;;;;;13.65;9.45;;;;;;;;;;4953109;29;20051;-73
2021/10/19 07:18:34;;;;;;;16.30;9.70;;;;;;;;;;4938086;29;20114;-69
2021/10/19 07:21:00;;;;;;;13.75;9.48;;;;;;;;;;4954090;29;20069;-69
2021/10/19 07:23:27;;;;;;;18.98;9.90;;;;;;;;;;4953077;29;20102;-71
2021/10/19 07:25:54;;;;;;;11.65;9.25;;;;;;;;;;4955410;29;20106;-71
2021/10/19 07:28:20;;;;;;;12.13;9.50;;;;;;;;;;4954833;29;20415;-71
2021/10/19 07:30:48;;;;;;;12.13;8.98;;;;;;;;;;4955144;29;20102;-71
2021/10/19 07:33:15;;;;;;;13.02;9.07;;;;;;;;;;4954692;29;20510;-70
2021/10/19 07:35:42;;;;;;;13.45;9.38;;;;;;;;;;4951496;29;20059;-72
2021/10/19 07:38:11;;;;;;;15.88;9.45;;;;;;;;;;4954517;29;20055;-70
2021/10/19 07:40:37;;;;;;;12.63;9.65;;;;;;;;;;4954168;29;20138;-74
2021/10/19 07:43:04;;;;;;;16.00;10.57;;;;;;;;;;4936859;29;20055;-65
2021/10/19 07:45:31;;;;;;;16.75;10.57;;;;;;;;;;4954534;29;20047;-72
2021/10/19 07:48:01;;;;;;;13.52;8.98;;;;;;;;;;4937523;29;20422;-73
2021/10/19 07:50:29;;;;;;;12.77;9.27;;;;;;;;;;4954434;29;20055;-74
2021/10/19 07:52:57;;;;;;;15.30;9.77;;;;;;;;;;4937425;29;20062;-72
2021/10/19 07:55:24;;;;;;;12.68;9.52;;;;;;;;;;4954325;29;20502;-75
2021/10/19 07:57:52;;;;;;;12.98;9.02;;;;;;;;;;4912487;29;20055;-73
2021/10/19 08:00:24;;;;;;;16.52;10.10;;;;;;;;;;4927427;29;20495;-70
2021/10/19 08:02:52;;;;;;;14.93;10.20;;;;;;;;;;4953296;29;20102;-69
2021/10/19 08:05:19;;;;;;;16.20;10.45;;;;;;;;;;4954563;29;20049;-69
2021/10/19 08:07:48;;;;;;;16.40;10.15;;;;;;;;;;4954064;29;20502;-70
2021/10/19 08:10:17;;;;;;;17.10;10.90;;;;;;;;;;4934234;29;20410;-65
2021/10/19 08:12:44;;;;;;;15.50;10.02;;;;;;;;;;4953584;29;20051;-67
2021/10/19 08:15:12;;;;;;;13.70;10.45;;;;;;;;;;4954045;29;20395;-66
2021/10/19 08:17:40;;;;;;;15.75;11.32;;;;;;;;;;4946193;29;20102;-65
2021/10/19 08:20:08;;;;;;;13.88;10.63;;;;;;;;;;4953124;29;20105;-66
2021/10/19 08:22:35;;;;;;;15.40;10.40;;;;;;;;;;4934390;29;20043;-66
2021/10/19 08:25:05;;;;;;;14.45;11.73;;;;;;;;;;4949875;29;20054;-64
2021/10/19 08:27:32;;;;;;;14.98;10.50;;;;;;;;;;4953044;29;20048;-64
2021/10/19 08:29:59;;;;;;;13.73;10.57;;;;;;;;;;4953707;29;20462;-65
2021/10/19 08:32:26;;;;;;;14.75;10.43;;;;;;;;;;4953753;29;20040;-65
2021/10/19 08:34:52;;;;;;;11.60;9.85;;;;;;;;;;4953417;29;20750;-65
2021/10/19 08:37:19;;;;;;;11.57;9.43;;;;;;;;;;4951763;29;20047;-65
2021/10/19 08:39:46;;;;;;;11.00;8.65;;;;;;;;;;4953380;29;20047;-65
2021/10/19 08:42:13;;;;;;;12.40;9.15;;;;;;;;;;4952514;29;20047;-65
2021/10/19 08:44:45;;;;;;;14.20;9.70;;;;;;;;;;4953451;29;20514;-65
2021/10/19 08:47:12;;;;;;;13.98;10.13;;;;;;;;;;4953127;29;20106;-66
2021/10/19 08:49:40;;;;;;;14.77;10.48;;;;;;;;;;4953535;29;20475;-66
2021/10/19 08:52:07;;;;;;;14.65;10.18;;;;;;;;;;4932711;29;20051;-64
2021/10/19 08:54:34;;;;;;;13.60;9.73;;;;;;;;;;4953716;29;20058;-64
2021/10/19 08:57:00;;;;;;;14.25;9.75;;;;;;;;;;4952845;29;20506;-64
2021/10/19 08:59:27;;;;;;;17.38;11.45;;;;;;;;;;4952802;29;20102;-63
2021/10/19 09:01:56;;;;;;;13.57;9.63;;;;;;;;;;4952989;29;20051;-63
2021/10/19 09:04:28;;;;;;;13.35;9.65;;;;;;;;;;4953305;29;20055;-65
2021/10/19 09:06:56;;;;;;;10.35;8.32;;;;;;;;;;4935996;29;20058;-64
2021/10/19 09:09:25;;;;;;;14.88;7.97;;;;;;;;;;4953369;29;20102;-64
2021/10/19 09:11:54;;;;;;;12.23;7.63;;;;;;;;;;4952634;29;20047;-65
2021/10/19 09:14:27;;;;;;;14.52;7.60;;;;;;;;;;4949407;29;20054;-66
2021/10/19 09:16:56;;;;;;;11.90;7.35;;;;;;;;;;4952055;29;20537;-66
2021/10/19 09:19:23;;;;;;;15.10;8.73;;;;;;;;;;4952542;29;20089;-66
2021/10/19 09:22:09;;;;;;;9.55;7.95;;;;;;;;;;4949835;28;20051;-66
2021/10/19 09:24:37;;;;;;;9.00;7.38;;;;;;;;;;4953128;29;20106;-66
2021/10/19 09:27:10;;;;;;;13.38;7.10;;;;;;;;;;4952544;29;20300;-67
2021/10/19 09:29:47;;;;;;;6.88;5.55;;;;;;;;;;4951046;29;20051;-66
2021/10/19 09:32:14;;;;;;;8.70;4.85;;;;;;;;;;4952380;29;20051;-66
2021/10/19 09:34:44;;;;;;;8.52;4.35;;;;;;;;;;4952674;29;20059;-67
2021/10/19 09:37:21;;;;;;;5.78;4.60;;;;;;;;;;4951837;29;20058;-67
2021/10/19 09:39:51;;;;;;;5.00;4.40;;;;;;;;;;4952413;29;20559;-67
2021/10/19 09:42:23;;;;;;;5.25;4.15;;;;;;;;;;4935298;29;20043;-66
2021/10/19 09:44:58;;;;;;;5.45;4.20;;;;;;;;;;4952564;29;20423;-66
2021/10/19 09:47:29;;;;;;;5.90;3.90;;;;;;;;;;4952730;29;20055;-67
2021/10/19 09:49:56;;;;;;;4.68;3.28;;;;;;;;;;4950894;29;20517;-67
2021/10/19 09:52:23;;;;;;;5.45;3.63;;;;;;;;;;4951996;29;20047;-70
2021/10/19 09:54:53;;;;;;;4.88;3.58;;;;;;;;;;4949805;29;20106;-70
2021/10/19 09:57:20;;;;;;;4.65;3.22;;;;;;;;;;4952176;29;20466;-71
2021/10/19 09:59:47;;;;;;;4.65;3.33;;;;;;;;;;4952270;29;20106;-68
2021/10/19 10:02:15;;;;;;;3.80;3.28;;;;;;;;;;4935114;29;20043;-69
2021/10/19 10:04:42;;;;;;;4.55;3.08;;;;;;;;;;4951815;29;20467;-69
2021/10/19 10:07:12;;;;;;;5.40;2.97;;;;;;;;;;4952181;29;20055;-68
2021/10/19 10:09:39;;;;;;;5.15;3.00;;;;;;;;;;4914007;29;20043;-68
2021/10/19 10:12:08;;;;;;;4.68;2.33;;;;;;;;;;4928497;29;20094;-64
2021/10/19 10:14:46;;;;;;;2.42;2.22;;;;;;;;;;4951984;29;20055;-71
2021/10/19 10:17:13;;;;;;;3.35;2.70;;;;;;;;;;4948522;29;20047;-70
2021/10/19 10:19:41;;;;;;;4.90;2.78;;;;;;;;;;4951537;28;20515;-71
2021/10/19 10:22:17;;;;;;;3.58;2.90;;;;;;;;;;4949079;23;20056;-72
2021/10/19 10:24:45;;;;;;;3.03;2.67;;;;;;;;;;4892546;29;20052;-73
2021/10/19 10:27:14;;;;;;;4.57;3.20;;;;;;;;;;4921633;29;20059;-75
2021/10/19 10:29:43;;;;;;;3.78;3.08;;;;;;;;;;4909556;29;20142;-70
2021/10/19 10:32:33;;;;;;;3.63;3.00;;;;;;;;;;4924102;29;20055;-74
2021/10/19 10:35:04;;;;;;;5.20;3.40;;;;;;;;;;4947482;29;20094;-72
2021/10/19 10:37:51;;;;;;;4.85;3.47;;;;;;;;;;4923651;29;20081;-72
2021/10/19 10:40:30;;;;;;;5.00;3.58;;;;;;;;;;4944492;29;20051;-71
2021/10/19 10:43:00;;;;;;;6.82;3.63;;;;;;;;;;4941774;29;20051;-71
2021/10/19 10:45:32;;;;;;;4.32;3.72;;;;;;;;;;4945449;29;20110;-71
2021/10/19 10:48:02;;;;;;;4.28;3.78;;;;;;;;;;4944180;29;20047;-71
2021/10/19 10:50:29;;;;;;;4.63;3.80;;;;;;;;;;4944181;29;20058;-69
2021/10/19 10:53:03;;;;;;;4.03;3.25;;;;;;;;;;4924862;29;20047;-70
2021/10/19 10:55:37;;;;;;;4.30;3.55;;;;;;;;;;4945709;29;20051;-72
2021/10/19 10:58:04;;;;;;;5.22;2.58;;;;;;;;;;4911374;29;20460;-73
2021/10/19 11:00:31;;;;;;;5.18;2.90;;;;;;;;;;4913052;29;20058;-73
2021/10/19 11:03:15;;;;;;;5.43;2.83;;;;;;;;;;4910826;29;20499;-72
2021/10/19 11:06:00;;;;;;;6.93;2.88;;;;;;;;;;4930090;29;20055;-72
2021/10/19 11:08:28;;;;;;;5.32;2.90;;;;;;;;;;4918471;29;20043;-72
2021/10/19 11:11:08;;;;;;;4.97;3.40;;;;;;;;;;4929433;29;20099;-72
2021/10/19 11:13:58;;;;;;;3.75;2.55;;;;;;;;;;4942743;29;20117;-72
2021/10/19 11:16:42;;;;;;;3.05;2.40;;;;;;;;;;4943213;29;20047;-72
2021/10/19 11:19:26;;;;;;;2.90;2.60;;;;;;;;;;4907012;29;20067;-73
2021/10/19 11:21:58;;;;;;;4.75;3.03;;;;;;;;;;4943759;29;20466;-71
2021/10/19 11:24:27;;;;;;;4.13;2.67;;;;;;;;;;4945634;29;20052;-69
2021/10/19 11:26:54;;;;;;;5.45;3.22;;;;;;;;;;4943259;29;20098;-74
2021/10/19 11:29:21;;;;;;;3.80;2.53;;;;;;;;;;4885574;29;20066;-72
2021/10/19 11:31:51;;;;;;;4.97;2.90;;;;;;;;;;4942667;29;20103;-73
2021/10/19 11:34:18;;;;;;;8.60;4.10;;;;;;;;;;4907640;29;20447;-72
2021/10/19 11:36:51;;;;;;;4.68;3.55;;;;;;;;;;4943160;29;20054;-70
2021/10/19 11:39:18;;;;;;;3.95;2.75;;;;;;;;;;4945240;29;20051;-70
2021/10/19 11:41:59;;;;;;;7.80;3.17;;;;;;;;;;4942926;29;20087;-70
2021/10/19 11:44:36;;;;;;;4.05;2.72;;;;;;;;;;4942663;28;20078;-70
2021/10/19 11:47:04;;;;;;;3.35;2.92;;;;;;;;;;4943864;29;20051;-70
2021/10/19 11:49:32;;;;;;;3.20;2.78;;;;;;;;;;4944596;29;20098;-69
2021/10/19 11:51:59;;;;;;;5.57;2.80;;;;;;;;;;4907490;29;20102;-70
2021/10/19 11:54:29;;;;;;;4.03;2.75;;;;;;;;;;4926294;29;20122;-70
2021/10/19 11:56:57;;;;;;;4.60;3.00;;;;;;;;;;4909730;29;20052;-68
2021/10/19 11:59:24;;;;;;;7.70;2.95;;;;;;;;;;4943180;29;20047;-68
2021/10/19 12:01:53;;;;;;;5.95;2.80;;;;;;;;;;4942302;29;20110;-69
2021/10/19 12:04:26;;;;;;;4.38;2.78;;;;;;;;;;4941455;29;20047;-70
2021/10/19 12:06:53;;;;;;;5.28;3.70;;;;;;;;;;4942540;29;20056;-69
2021/10/19 12:09:27;;;;;;;3.08;2.78;;;;;;;;;;4940608;29;20058;-69
2021/10/19 12:11:56;;;;;;;5.57;3.58;;;;;;;;;;4941775;29;20105;-68
2021/10/19 12:14:30;;;;;;;5.32;3.50;;;;;;;;;;4942848;29;20051;-69
2021/10/19 12:17:00;;;;;;;5.03;3.58;;;;;;;;;;4942439;29;20051;-71
2021/10/19 12:19:27;;;;;;;5.97;3.80;;;;;;;;;;4942671;29;20047;-70
2021/10/19 12:21:56;;;;;;;5.13;3.65;;;;;;;;;;4939941;29;20055;-70
2021/10/19 12:24:23;;;;;;;6.45;3.65;;;;;;;;;;4944431;29;20491;-70
2021/10/19 12:27:00;;;;;;;5.78;3.38;;;;;;;;;;4938907;29;20112;-70
2021/10/19 12:29:32;;;;;;;4.53;3.20;;;;;;;;;;4942203;29;20043;-70
2021/10/19 12:32:04;;;;;;;6.18;3.78;;;;;;;;;;4943822;29;20039;-70
2021/10/19 12:34:32;;;;;;;5.15;3.35;;;;;;;;;;4937197;29;20055;-70
2021/10/19 12:37:02;;;;;;;4.00;3.30;;;;;;;;;;4944426;29;20050;-70
2021/10/19 12:39:30;;;;;;;4.68;3.30;;;;;;;;;;4942798;29;20099;-70
2021/10/19 12:41:56;;;;;;;3.80;2.88;;;;;;;;;;4940833;29;20106;-70
2021/10/19 12:44:23;;;;;;;5.10;3.50;;;;;;;;;;4944062;29;20328;-70
2021/10/19 12:46:50;;;;;;;6.63;2.85;;;;;;;;;;4943761;29;20059;-70
2021/10/19 12:49:17;;;;;;;3.08;2.50;;;;;;;;;;4943184;29;20087;-70
2021/10/19 12:51:44;;;;;;;4.82;3.78;;;;;;;;;;4942416;29;20048;-70
2021/10/19 12:54:11;;;;;;;5.32;3.17;;;;;;;;;;4943497;29;20051;-70
2021/10/19 12:56:41;;;;;;;4.15;2.53;;;;;;;;;;4943072;29;20048;-70
2021/10/19 12:59:08;;;;;;;2.88;2.40;;;;;;;;;;4941305;29;20055;-70
2021/10/19 13:01:35;;;;;;;2.50;1.92;;;;;;;;;;4943102;29;20095;-70
2021/10/19 13:04:02;;;;;;;3.15;2.25;;;;;;;;;;4943822;29;20051;-70
2021/10/19 13:06:30;;;;;;;3.00;2.35;;;;;;;;;;4940211;29;20055;-70
2021/10/19 13:09:01;;;;;;;3.38;2.60;;;;;;;;;;4940651;29;20051;-70
2021/10/19 13:11:28;;;;;;;4.93;2.70;;;;;;;;;;4941563;29;20055;-70
2021/10/19 13:13:55;;;;;;;4.95;3.05;;;;;;;;;;4946870;29;20047;-70
2021/10/19 13:16:22;;;;;;;4.07;2.50;;;;;;;;;;4940404;29;20282;-70
2021/10/19 13:18:49;;;;;;;4.18;2.70;;;;;;;;;;4941106;29;20058;-70
2021/10/19 13:21:17;;;;;;;4.80;2.58;;;;;;;;;;4942324;28;20048;-70
2021/10/19 13:23:44;;;;;;;4.68;3.20;;;;;;;;;;4943319;29;20051;-70
2021/10/19 13:26:11;;;;;;;4.25;2.70;;;;;;;;;;4941519;29;20063;-70
2021/10/19 13:28:38;;;;;;;3.85;2.95;;;;;;;;;;4939528;29;20044;-70
2021/10/19 13:31:04;;;;;;;3.08;2.60;;;;;;;;;;4941027;29;20085;-70
2021/10/19 13:33:31;;;;;;;4.63;2.70;;;;;;;;;;4938418;29;20043;-70
2021/10/19 13:36:02;;;;;;;3.63;2.63;;;;;;;;;;4941770;29;20079;-69
2021/10/19 13:38:30;;;;;;;4.30;2.85;;;;;;;;;;4939558;29;20047;-69
2021/10/19 13:40:57;;;;;;;4.28;2.90;;;;;;;;;;4941315;29;20048;-69
2021/10/19 13:43:24;;;;;;;5.35;3.70;;;;;;;;;;4907682;29;20048;-69
2021/10/19 13:45:51;;;;;;;6.97;3.75;;;;;;;;;;4942142;29;20054;-69
2021/10/19 13:48:18;;;;;;;4.95;3.20;;;;;;;;;;4910871;29;20056;-69
2021/10/19 13:50:47;;;;;;;6.72;3.42;;;;;;;;;;4940723;29;20407;-69
2021/10/19 13:53:15;;;;;;;5.72;3.10;;;;;;;;;;4941736;29;20094;-69
2021/10/19 13:55:42;;;;;;;5.32;3.40;;;;;;;;;;4942440;29;20051;-69
2021/10/19 13:58:08;;;;;;;4.55;3.05;;;;;;;;;;4942802;29;20050;-71
2021/10/19 14:00:35;;;;;;;3.83;2.80;;;;;;;;;;4936745;29;20051;-71
2021/10/19 14:03:02;;;;;;;5.13;3.22;;;;;;;;;;4942829;29;20052;-69
2021/10/19 14:05:30;;;;;;;5.78;3.22;;;;;;;;;;4910406;29;20047;-68
2021/10/19 14:07:57;;;;;;;4.28;2.90;;;;;;;;;;4939374;29;20051;-71
2021/10/19 14:10:25;;;;;;;5.57;3.00;;;;;;;;;;4938073;29;20399;-69
2021/10/19 14:12:52;;;;;;;3.45;2.60;;;;;;;;;;4940796;29;20047;-67
2021/10/19 14:15:19;;;;;;;4.90;2.78;;;;;;;;;;4939213;29;20055;-71
2021/10/19 14:17:45;;;;;;;4.43;2.58;;;;;;;;;;4943241;29;20067;-71
2021/10/19 14:20:12;;;;;;;3.60;2.50;;;;;;;;;;4938742;29;20057;-71
2021/10/19 14:22:40;;;;;;;3.83;3.30;;;;;;;;;;4940706;29;20047;-72
2021/10/19 14:25:07;;;;;;;4.97;2.78;;;;;;;;;;4942856;29;20055;-71
2021/10/19 14:27:34;;;;;;;5.03;2.70;;;;;;;;;;4927200;29;20051;-71
2021/10/19 14:30:00;;;;;;;3.42;2.35;;;;;;;;;;4940552;29;20051;-72
2021/10/19 14:32:27;;;;;;;5.30;2.85;;;;;;;;;;4943280;29;20094;-73
2021/10/19 14:34:55;;;;;;;4.82;2.58;;;;;;;;;;4940894;29;20328;-71